Aviation Digital Data Service (ADDS)

Output produced by METARs form (1335 UTC 25 February 2018)
found at http://aviationweather.gov/adds/metars/
 
KHYA 251128Z 2512/2612 09011KT 6SM -RA BR OVC035 
     FM251400 11013G29KT 3SM -RA BR OVC015 
     FM251600 11013G29KT 2SM -RA BR OVC008 
     FM252300 12011KT 3SM BR OVC003 
     FM260200 22009KT 3SM BR OVC003 
     FM260300 27010KT 3SM BR OVC008 
     FM260600 31010KT P6SM BKN100